createdAt,value
2019-04-10T00:01:19.611Z,100301.25
2019-04-10T00:05:27.740Z,100302.38
2019-04-10T00:09:32.926Z,100308.00
2019-04-10T00:13:38.531Z,100302.73
2019-04-10T00:17:45.438Z,100302.52
2019-04-10T00:21:50.614Z,100300.89
2019-04-10T00:25:55.867Z,100299.11
2019-04-10T00:30:01.098Z,100302.23
2019-04-10T00:34:07.382Z,100298.00
2019-04-10T00:38:13.595Z,100288.59
2019-04-10T00:42:19.027Z,100288.59
2019-04-10T00:46:24.347Z,100305.11
2019-04-10T00:50:30.625Z,100303.27
2019-04-10T00:54:35.934Z,100307.64
2019-04-10T00:58:41.598Z,100311.00
2019-04-10T01:02:47.091Z,100313.36
2019-04-10T01:06:52.540Z,100314.84
2019-04-10T01:11:01.022Z,100319.63
2019-04-10T01:15:06.922Z,100320.16
2019-04-10T01:19:12.170Z,100323.92
2019-04-10T01:23:17.377Z,100320.45
2019-04-10T01:27:23.600Z,100312.53
2019-04-10T01:31:28.910Z,100320.88
2019-04-10T01:35:34.386Z,100307.53
2019-04-10T01:39:40.247Z,100310.11
2019-04-10T01:43:45.509Z,100309.56
2019-04-10T01:47:51.721Z,100305.48
2019-04-10T01:51:57.399Z,100317.47
2019-04-10T01:56:03.166Z,100321.56
2019-04-10T02:00:13.211Z,100322.23
2019-04-10T02:04:18.484Z,100313.16
2019-04-10T02:08:23.976Z,100318.31
2019-04-10T02:12:29.211Z,100315.63
2019-04-10T02:16:34.763Z,100321.73
2019-04-10T02:20:39.984Z,100321.16
2019-04-10T02:24:45.785Z,100321.16
2019-04-10T02:28:51.389Z,100325.11
2019-04-10T02:32:57.984Z,100321.71
2019-04-10T02:37:03.206Z,100315.20
2019-04-10T02:41:10.050Z,100324.00
2019-04-10T02:45:16.886Z,100320.06
2019-04-10T02:49:22.574Z,100326.54
2019-04-10T02:53:27.750Z,100328.81
2019-04-10T02:57:33.767Z,100325.66
2019-04-10T03:01:39.981Z,100319.02
2019-04-10T03:05:46.571Z,100325.95
2019-04-10T03:10:05.038Z,100322.48
2019-04-10T03:14:04.364Z,100326.14
2019-04-10T03:18:09.733Z,100327.67
2019-04-10T03:22:14.931Z,100333.64
2019-04-10T03:26:20.114Z,100338.79
2019-04-10T03:30:27.197Z,100341.34
2019-04-10T03:34:36.492Z,100343.11
2019-04-10T03:38:54.220Z,100341.78
2019-04-10T03:42:47.441Z,100351.06
2019-04-10T03:46:53.864Z,100344.06
2019-04-10T03:50:59.108Z,100343.78
2019-04-10T03:55:04.945Z,100348.59
2019-04-10T03:59:10.216Z,100352.92
2019-04-10T04:03:16.126Z,100353.70
2019-04-10T04:07:21.356Z,100359.99
2019-04-10T04:11:26.558Z,100356.09
2019-04-10T04:15:32.281Z,100358.25
2019-04-10T04:19:38.013Z,100367.87
2019-04-10T04:23:43.133Z,100372.13
2019-04-10T04:27:48.273Z,100367.92
2019-04-10T04:31:54.509Z,100370.22
2019-04-10T04:35:59.996Z,100376.89
2019-04-10T04:40:05.540Z,100381.03
2019-04-10T04:44:10.715Z,100383.63
2019-04-10T04:48:17.010Z,100377.28
2019-04-10T04:52:22.204Z,100383.11
2019-04-10T04:56:28.221Z,100399.30
2019-04-10T05:00:34.052Z,100398.47
2019-04-10T05:04:39.636Z,100407.02
2019-04-10T05:08:44.826Z,100413.85
2019-04-10T05:12:50.183Z,100416.44
2019-04-10T05:16:55.508Z,100421.24
2019-04-10T05:21:03.789Z,100421.34
2019-04-10T05:25:09.138Z,100429.55
2019-04-10T05:29:15.382Z,100433.80
2019-04-10T05:33:20.651Z,100430.01
2019-04-10T05:37:25.905Z,100439.12
2019-04-10T05:41:31.445Z,100445.75
2019-04-10T05:45:36.618Z,100449.95
2019-04-10T05:49:41.809Z,100461.83
2019-04-10T05:53:47.886Z,100460.45
2019-04-10T05:57:53.874Z,100466.09
2019-04-10T06:01:59.042Z,100470.27
2019-04-10T06:06:04.197Z,100463.17
2019-04-10T06:10:10.832Z,100471.31
2019-04-10T06:14:16.329Z,100482.48
2019-04-10T06:18:22.770Z,100479.95
2019-04-10T06:22:28.468Z,100487.25
2019-04-10T06:26:35.481Z,100488.18
2019-04-10T06:30:41.880Z,100489.62
2019-04-10T06:34:47.867Z,100486.61
2019-04-10T06:38:55.106Z,100487.11
2019-04-10T06:43:01.033Z,100487.33
2019-04-10T06:47:06.448Z,100496.27
2019-04-10T06:51:12.859Z,100497.69
2019-04-10T06:55:18.580Z,100501.91
2019-04-10T06:59:23.847Z,100504.15
2019-04-10T07:03:46.951Z,100504.59
2019-04-10T07:07:49.878Z,100510.68
2019-04-10T07:11:42.951Z,100510.66
2019-04-10T07:15:48.146Z,100510.93
2019-04-10T07:19:55.545Z,100517.31
2019-04-10T07:24:05.043Z,100518.98
2019-04-10T07:28:09.726Z,100528.00
2019-04-10T07:32:15.055Z,100530.24
2019-04-10T07:36:20.458Z,100535.23
2019-04-10T07:40:25.617Z,100529.32
2019-04-10T07:44:31.109Z,100540.73
2019-04-10T07:48:36.412Z,100550.20
2019-04-10T07:52:41.642Z,100548.20
2019-04-10T07:56:47.248Z,100554.36
2019-04-10T08:00:53.331Z,100554.20
2019-04-10T08:04:58.619Z,100560.57
2019-04-10T08:09:06.388Z,100557.97
2019-04-10T08:13:12.186Z,100554.26
2019-04-10T08:17:17.314Z,100555.95
2019-04-10T08:21:22.398Z,100558.75
2019-04-10T08:25:35.304Z,100557.92
2019-04-10T08:29:40.903Z,100564.16
2019-04-10T08:33:46.755Z,100564.16
2019-04-10T08:37:52.791Z,100576.00
2019-04-10T08:42:00.541Z,100572.38
2019-04-10T08:46:06.789Z,100578.36
2019-04-10T08:50:12.376Z,100583.45
2019-04-10T08:54:18.467Z,100579.61
2019-04-10T08:58:23.539Z,100584.57
2019-04-10T09:02:30.406Z,100577.51
2019-04-10T09:06:38.188Z,100583.95
2019-04-10T09:10:43.454Z,100593.98
2019-04-10T09:14:49.571Z,100597.84
2019-04-10T09:18:59.822Z,100596.00
2019-04-10T09:23:29.795Z,100597.80
2019-04-10T09:27:21.285Z,100597.12
2019-04-10T09:31:28.046Z,100586.72
2019-04-10T09:35:36.293Z,100589.17
2019-04-10T09:39:47.964Z,100589.42
2019-04-10T09:43:54.288Z,100589.42
2019-04-10T09:47:59.993Z,100591.70
2019-04-10T09:52:05.278Z,100595.56
2019-04-10T09:56:11.531Z,100589.98
2019-04-10T10:00:17.459Z,100590.28
2019-04-10T10:04:23.655Z,100594.55
2019-04-10T10:08:28.944Z,100600.14
2019-04-10T10:12:34.347Z,100599.60
2019-04-10T10:16:40.043Z,100594.28
2019-04-10T10:20:45.999Z,100591.68
2019-04-10T10:24:51.287Z,100595.55
2019-04-10T10:28:56.691Z,100585.89
2019-04-10T10:33:01.811Z,100591.66
2019-04-10T10:37:10.409Z,100597.98
2019-04-10T10:41:16.455Z,100599.56
2019-04-10T10:45:22.894Z,100595.19
2019-04-10T10:49:28.591Z,100593.78
2019-04-10T10:53:34.551Z,100597.21
2019-04-10T10:57:39.758Z,100593.69
2019-04-10T11:01:46.339Z,100596.91
2019-04-10T11:05:52.764Z,100588.48
2019-04-10T11:09:58.592Z,100594.33
2019-04-10T11:14:04.706Z,100593.06
2019-04-10T11:18:10.762Z,100601.98
2019-04-10T11:22:21.809Z,100602.69
2019-04-10T11:26:24.221Z,100607.55
2019-04-10T11:30:32.392Z,100601.11
2019-04-10T11:34:38.207Z,100610.05
2019-04-10T11:38:45.375Z,100610.05
2019-04-10T11:42:52.651Z,100607.64
2019-04-10T11:46:58.907Z,100610.20
2019-04-10T11:51:06.738Z,100619.25
2019-04-10T11:55:16.113Z,100620.66
2019-04-10T11:59:22.064Z,100610.89
2019-04-10T12:03:27.157Z,100609.36
2019-04-10T12:11:42.605Z,100612.56
2019-04-10T12:15:48.412Z,100625.56
2019-04-10T12:19:54.325Z,100620.09
2019-04-10T12:24:01.146Z,100615.47
2019-04-10T12:28:06.622Z,100629.19
2019-04-10T12:32:12.417Z,100628.55
2019-04-10T12:36:18.368Z,100633.78
2019-04-10T12:40:23.603Z,100627.70
2019-04-10T12:44:29.643Z,100626.36
2019-04-10T12:48:34.927Z,100631.15
2019-04-10T12:52:40.907Z,100630.60
2019-04-10T12:56:46.435Z,100648.03
2019-04-10T13:00:52.159Z,100632.16
2019-04-10T13:04:58.724Z,100630.55
2019-04-10T13:09:10.732Z,100631.56
2019-04-10T13:13:14.325Z,100618.38
2019-04-10T13:17:20.258Z,100626.72
2019-04-10T13:21:26.388Z,100637.48
2019-04-10T13:25:35.208Z,100635.05
2019-04-10T13:29:52.216Z,100626.23
2019-04-10T13:34:05.862Z,100638.51
2019-04-10T13:38:11.161Z,100630.34
2019-04-10T13:42:16.865Z,100633.53
2019-04-10T13:46:22.013Z,100632.88
2019-04-10T13:50:27.173Z,100636.83
2019-04-10T13:54:32.990Z,100638.38
2019-04-10T13:58:38.371Z,100634.38
2019-04-10T14:02:43.713Z,100637.44
2019-04-10T14:06:49.359Z,100641.23
2019-04-10T14:10:57.100Z,100631.84
2019-04-10T14:15:14.028Z,100638.11
2019-04-10T14:19:25.532Z,100635.41
2019-04-10T14:23:31.445Z,100636.52
2019-04-10T14:27:40.821Z,100645.16
2019-04-10T14:31:53.182Z,100643.43
2019-04-10T14:36:03.414Z,100642.80
2019-04-10T14:40:22.145Z,100659.21
2019-04-10T14:44:36.783Z,100650.77
2019-04-10T14:48:46.689Z,100654.11
2019-04-10T14:52:51.965Z,100653.75
2019-04-10T14:57:11.353Z,100660.56
2019-04-10T15:01:17.680Z,100666.38
2019-04-10T15:05:23.775Z,100649.44
2019-04-10T15:09:28.978Z,100658.17
2019-04-10T15:13:34.084Z,100663.18
2019-04-10T15:17:40.246Z,100664.89
2019-04-10T15:21:45.511Z,100664.43
2019-04-10T15:25:57.704Z,100666.33
2019-04-10T15:30:06.240Z,100667.23
2019-04-10T15:34:11.957Z,100667.42
2019-04-10T15:38:18.554Z,100667.68
2019-04-10T15:42:27.819Z,100668.77
2019-04-10T15:46:33.244Z,100671.91
2019-04-10T15:50:39.355Z,100672.52
2019-04-10T15:54:45.893Z,100680.41
2019-04-10T15:58:52.023Z,100683.39
2019-04-10T16:02:57.752Z,100682.72
2019-04-10T16:07:04.149Z,100679.02
2019-04-10T16:11:36.190Z,100686.79
2019-04-10T16:15:42.887Z,100690.48
2019-04-10T16:19:59.824Z,100691.12
2019-04-10T16:24:09.376Z,100697.65
2019-04-10T16:28:29.254Z,100690.27
2019-04-10T16:32:37.998Z,100689.88
2019-04-10T16:36:54.278Z,100695.96
2019-04-10T16:41:02.674Z,100696.73
2019-04-10T16:45:15.823Z,100706.81
2019-04-10T16:49:22.419Z,100716.27
2019-04-10T16:53:27.997Z,100716.62
2019-04-10T16:57:33.181Z,100713.84
2019-04-10T17:01:39.234Z,100728.37
2019-04-10T17:05:44.466Z,100730.28
2019-04-10T17:09:50.437Z,100726.78
2019-04-10T17:13:57.185Z,100735.63
2019-04-10T17:18:03.146Z,100731.17
2019-04-10T17:22:08.983Z,100739.20
2019-04-10T17:26:14.956Z,100744.95
2019-04-10T17:30:25.355Z,100742.05
2019-04-10T17:34:32.752Z,100746.69
2019-04-10T17:38:42.496Z,100751.43
2019-04-10T17:42:48.638Z,100752.20
2019-04-10T17:46:55.593Z,100757.02
2019-04-10T17:51:03.830Z,100762.48
2019-04-10T17:55:11.496Z,100767.23
2019-04-10T17:59:18.428Z,100773.91
2019-04-10T18:03:46.036Z,100783.42
2019-04-10T18:07:48.133Z,100779.35
2019-04-10T18:12:27.946Z,100786.09
2019-04-10T18:16:36.086Z,100796.05
2019-04-10T18:20:43.003Z,100798.69
2019-04-10T18:24:49.542Z,100805.93
2019-04-10T18:28:54.752Z,100809.58
2019-04-10T18:33:00.315Z,100809.22
2019-04-10T18:37:05.653Z,100818.19
2019-04-10T18:41:11.773Z,100820.89
2019-04-10T18:45:17.582Z,100826.21
2019-04-10T18:49:23.200Z,100838.27
2019-04-10T18:53:28.940Z,100829.89
2019-04-10T18:57:35.670Z,100839.18
2019-04-10T19:02:12.285Z,100851.25
2019-04-10T19:06:22.848Z,100866.19
2019-04-10T19:10:28.692Z,100861.20
2019-04-10T19:14:37.120Z,100872.55
2019-04-10T19:19:02.059Z,100872.94
2019-04-10T19:23:07.335Z,100879.19
2019-04-10T19:27:12.689Z,100888.78
2019-04-10T19:31:23.032Z,100896.53
2019-04-10T19:35:28.782Z,100896.53
2019-04-10T19:39:34.220Z,100897.06
2019-04-10T19:43:40.232Z,100903.69
2019-04-10T19:47:46.361Z,100905.77
2019-04-10T19:51:51.825Z,100901.97
2019-04-10T19:55:56.965Z,100908.92
2019-04-10T20:00:02.648Z,100915.39
2019-04-10T20:04:08.269Z,100920.77
2019-04-10T20:08:13.769Z,100931.52
2019-04-10T20:12:20.255Z,100925.31
2019-04-10T20:16:25.534Z,100927.92
2019-04-10T20:20:31.155Z,100932.45
2019-04-10T20:24:36.749Z,100941.13
2019-04-10T20:28:41.956Z,100944.84
2019-04-10T20:32:47.276Z,100946.33
2019-04-10T20:36:53.298Z,100951.98
2019-04-10T20:40:58.780Z,100950.00
2019-04-10T20:45:05.186Z,100960.77
2019-04-10T20:49:10.420Z,100967.28
2019-04-10T20:53:15.967Z,100971.08
2019-04-10T20:57:21.516Z,100968.20
2019-04-10T21:01:26.767Z,100978.25
2019-04-10T21:05:31.956Z,100979.75
2019-04-10T21:09:37.411Z,100985.06
2019-04-10T21:13:42.633Z,100989.43
2019-04-10T21:17:48.682Z,100990.80
2019-04-10T21:21:55.441Z,100989.87
2019-04-10T21:26:00.711Z,100995.86
2019-04-10T21:30:29.849Z,101003.89
2019-04-10T21:34:39.195Z,101002.59
2019-04-10T21:38:45.199Z,101004.49
2019-04-10T21:42:51.934Z,101009.08
2019-04-10T21:46:57.248Z,101020.95
2019-04-10T21:51:02.637Z,101018.05
2019-04-10T21:55:07.847Z,101020.03
2019-04-10T21:59:14.835Z,101022.55
2019-04-10T22:03:21.022Z,101017.24
2019-04-10T22:07:34.546Z,101020.91
2019-04-10T22:11:41.311Z,101020.50
2019-04-10T22:15:47.418Z,101023.23
2019-04-10T22:19:52.864Z,101025.33
2019-04-10T22:23:58.965Z,101025.27
2019-04-10T22:28:04.320Z,101019.80
2019-04-10T22:32:10.717Z,101028.78
2019-04-10T22:36:17.083Z,101030.70
2019-04-10T22:40:23.513Z,101024.41
2019-04-10T22:44:37.548Z,101028.84
2019-04-10T22:48:35.855Z,101029.59
2019-04-10T22:52:42.212Z,101039.90
2019-04-10T22:56:47.808Z,101040.13
2019-04-10T23:00:53.878Z,101040.17
2019-04-10T23:04:59.787Z,101041.09
2019-04-10T23:09:09.709Z,101040.34
2019-04-10T23:13:16.065Z,101046.26
2019-04-10T23:17:21.498Z,101038.06
2019-04-10T23:21:26.752Z,101043.81
2019-04-10T23:25:32.157Z,101043.86
2019-04-10T23:29:38.171Z,101045.50
2019-04-10T23:33:44.025Z,101057.52
2019-04-10T23:37:49.182Z,101047.60
2019-04-10T23:41:54.837Z,101056.63
2019-04-10T23:46:00.031Z,101054.42
2019-04-10T23:50:06.028Z,101055.43
2019-04-10T23:54:11.241Z,101061.65
2019-04-10T23:58:16.455Z,101069.12
